sensor_id;sensor_type;location;lat;lon;timestamp;pressure;altitude;pressure_sealevel;temperature;humidity
29941;BME280;16801;53.562;10.038;2023-12-20T00:00:10;100946.69;;;6.30;100.00
29941;BME280;16801;53.562;10.038;2023-12-20T00:03:31;100940.97;;;6.22;100.00
29941;BME280;16801;53.562;10.038;2023-12-20T00:06:52;100944.94;;;6.16;100.00
29941;BME280;16801;53.562;10.038;2023-12-20T00:10:12;100945.06;;;6.15;100.00
29941;BME280;16801;53.562;10.038;2023-12-20T00:13:33;100941.41;;;6.16;100.00
29941;BME280;16801;53.562;10.038;2023-12-20T00:16:57;100929.19;;;6.12;100.00
29941;BME280;16801;53.562;10.038;2023-12-20T00:20:18;100939.16;;;6.10;100.00
29941;BME280;16801;53.562;10.038;2023-12-20T00:23:39;100935.72;;;6.08;100.00
29941;BME280;16801;53.562;10.038;2023-12-20T00:26:59;100934.34;;;6.02;100.00
29941;BME280;16801;53.562;10.038;2023-12-20T00:30:21;100929.63;;;6.06;100.00
29941;BME280;16801;53.562;10.038;2023-12-20T00:33:43;100929.50;;;6.07;100.00
29941;BME280;16801;53.562;10.038;2023-12-20T00:37:05;100919.47;;;6.11;100.00
29941;BME280;16801;53.562;10.038;2023-12-20T00:40:26;100920.66;;;6.07;100.00
29941;BME280;16801;53.562;10.038;2023-12-20T00:43:47;100917.97;;;6.07;100.00
29941;BME280;16801;53.562;10.038;2023-12-20T00:47:08;100918.06;;;6.05;100.00
29941;BME280;16801;53.562;10.038;2023-12-20T00:50:31;100898.81;;;6.13;100.00
29941;BME280;16801;53.562;10.038;2023-12-20T00:53:52;100905.88;;;6.14;100.00
29941;BME280;16801;53.562;10.038;2023-12-20T00:57:14;100895.81;;;6.17;100.00
29941;BME280;16801;53.562;10.038;2023-12-20T01:00:35;100893.53;;;6.24;100.00
29941;BME280;16801;53.562;10.038;2023-12-20T01:03:56;100893.34;;;6.27;100.00
29941;BME280;16801;53.562;10.038;2023-12-20T01:07:18;100882.22;;;6.20;100.00
29941;BME280;16801;53.562;10.038;2023-12-20T01:10:39;100883.59;;;6.13;100.00
29941;BME280;16801;53.562;10.038;2023-12-20T01:14:00;100894.66;;;6.09;100.00
29941;BME280;16801;53.562;10.038;2023-12-20T01:17:20;100883.94;;;6.09;100.00
29941;BME280;16801;53.562;10.038;2023-12-20T01:20:42;100890.25;;;6.08;100.00
29941;BME280;16801;53.562;10.038;2023-12-20T01:24:04;100888.84;;;6.02;100.00
29941;BME280;16801;53.562;10.038;2023-12-20T01:27:25;100885.53;;;5.99;100.00
29941;BME280;16801;53.562;10.038;2023-12-20T01:30:45;100869.47;;;5.99;100.00
29941;BME280;16801;53.562;10.038;2023-12-20T01:34:07;100876.66;;;5.98;100.00
29941;BME280;16801;53.562;10.038;2023-12-20T01:37:27;100876.97;;;5.94;100.00
29941;BME280;16801;53.562;10.038;2023-12-20T01:40:50;100877.09;;;5.92;100.00
29941;BME280;16801;53.562;10.038;2023-12-20T01:44:11;100883.38;;;5.91;100.00
29941;BME280;16801;53.562;10.038;2023-12-20T01:47:32;100869.47;;;5.86;100.00
29941;BME280;16801;53.562;10.038;2023-12-20T01:50:53;100865.97;;;5.86;100.00
29941;BME280;16801;53.562;10.038;2023-12-20T01:54:14;100858.56;;;5.89;100.00
29941;BME280;16801;53.562;10.038;2023-12-20T01:57:37;100865.97;;;5.98;100.00
29941;BME280;16801;53.562;10.038;2023-12-20T02:00:58;100883.94;;;5.96;100.00
29941;BME280;16801;53.562;10.038;2023-12-20T02:04:19;100861.78;;;5.94;100.00
29941;BME280;16801;53.562;10.038;2023-12-20T02:07:40;100855.78;;;5.91;100.00
29941;BME280;16801;53.562;10.038;2023-12-20T02:11:01;100856.88;;;5.88;100.00
29941;BME280;16801;53.562;10.038;2023-12-20T02:14:23;100843.53;;;5.74;100.00
29941;BME280;16801;53.562;10.038;2023-12-20T02:17:45;100839.06;;;5.75;100.00
29941;BME280;16801;53.562;10.038;2023-12-20T02:21:09;100832.09;;;5.72;100.00
29941;BME280;16801;53.562;10.038;2023-12-20T02:24:31;100837.38;;;5.74;100.00
29941;BME280;16801;53.562;10.038;2023-12-20T02:27:53;100823.88;;;5.75;100.00
29941;BME280;16801;53.562;10.038;2023-12-20T02:31:14;100830.59;;;5.81;100.00
29941;BME280;16801;53.562;10.038;2023-12-20T02:34:35;100830.59;;;5.81;100.00
29941;BME280;16801;53.562;10.038;2023-12-20T02:37:56;100824.50;;;5.79;100.00
29941;BME280;16801;53.562;10.038;2023-12-20T02:41:18;100819.91;;;5.81;100.00
29941;BME280;16801;53.562;10.038;2023-12-20T02:44:39;100816.28;;;5.82;100.00
29941;BME280;16801;53.562;10.038;2023-12-20T02:48:00;100822.47;;;5.82;100.00
29941;BME280;16801;53.562;10.038;2023-12-20T02:51:21;100808.16;;;5.83;100.00
29941;BME280;16801;53.562;10.038;2023-12-20T02:54:42;100804.59;;;5.83;100.00
29941;BME280;16801;53.562;10.038;2023-12-20T02:58:04;100800.22;;;5.82;100.00
29941;BME280;16801;53.562;10.038;2023-12-20T03:01:26;100811.13;;;5.79;100.00
29941;BME280;16801;53.562;10.038;2023-12-20T03:04:47;100796.06;;;5.78;100.00
29941;BME280;16801;53.562;10.038;2023-12-20T03:08:08;100800.91;;;5.85;100.00
29941;BME280;16801;53.562;10.038;2023-12-20T03:11:30;100793.63;;;5.87;100.00
29941;BME280;16801;53.562;10.038;2023-12-20T03:14:52;100788.66;;;5.81;100.00
29941;BME280;16801;53.562;10.038;2023-12-20T03:18:13;100790.50;;;5.81;100.00
29941;BME280;16801;53.562;10.038;2023-12-20T03:21:34;100791.03;;;5.73;100.00
29941;BME280;16801;53.562;10.038;2023-12-20T03:24:55;100782.78;;;5.76;100.00
29941;BME280;16801;53.562;10.038;2023-12-20T03:28:16;100768.66;;;5.74;100.00
29941;BME280;16801;53.562;10.038;2023-12-20T03:31:39;100771.88;;;5.79;100.00
29941;BME280;16801;53.562;10.038;2023-12-20T03:35:00;100770.41;;;5.88;100.00
29941;BME280;16801;53.562;10.038;2023-12-20T03:38:21;100759.56;;;5.77;100.00
29941;BME280;16801;53.562;10.038;2023-12-20T03:41:43;100768.03;;;5.83;100.00
29941;BME280;16801;53.562;10.038;2023-12-20T03:45:05;100767.72;;;5.75;100.00
29941;BME280;16801;53.562;10.038;2023-12-20T03:48:28;100760.63;;;5.74;100.00
29941;BME280;16801;53.562;10.038;2023-12-20T03:51:49;100755.09;;;5.77;100.00
29941;BME280;16801;53.562;10.038;2023-12-20T03:55:10;100749.00;;;5.75;100.00
29941;BME280;16801;53.562;10.038;2023-12-20T03:58:30;100734.88;;;5.73;100.00
29941;BME280;16801;53.562;10.038;2023-12-20T04:01:52;100728.78;;;5.84;100.00
29941;BME280;16801;53.562;10.038;2023-12-20T04:05:14;100732.22;;;5.86;100.00
29941;BME280;16801;53.562;10.038;2023-12-20T04:08:35;100734.91;;;5.86;100.00
29941;BME280;16801;53.562;10.038;2023-12-20T04:11:56;100741.06;;;5.86;100.00
29941;BME280;16801;53.562;10.038;2023-12-20T04:15:16;100727.81;;;5.85;100.00
29941;BME280;16801;53.562;10.038;2023-12-20T04:18:37;100735.06;;;5.83;100.00
29941;BME280;16801;53.562;10.038;2023-12-20T04:22:00;100717.66;;;5.90;100.00
29941;BME280;16801;53.562;10.038;2023-12-20T04:25:21;100709.50;;;5.91;100.00
29941;BME280;16801;53.562;10.038;2023-12-20T04:28:41;100711.22;;;5.92;100.00
29941;BME280;16801;53.562;10.038;2023-12-20T04:32:03;100699.88;;;5.89;100.00
29941;BME280;16801;53.562;10.038;2023-12-20T04:35:24;100706.09;;;5.89;100.00
29941;BME280;16801;53.562;10.038;2023-12-20T04:38:46;100696.88;;;5.93;100.00
29941;BME280;16801;53.562;10.038;2023-12-20T04:42:07;100693.47;;;5.91;100.00
29941;BME280;16801;53.562;10.038;2023-12-20T04:45:28;100680.72;;;5.95;100.00
29941;BME280;16801;53.562;10.038;2023-12-20T04:48:49;100674.53;;;5.94;100.00
29941;BME280;16801;53.562;10.038;2023-12-20T04:52:10;100679.63;;;5.97;100.00
29941;BME280;16801;53.562;10.038;2023-12-20T04:55:32;100666.25;;;5.97;100.00
29941;BME280;16801;53.562;10.038;2023-12-20T04:58:53;100668.19;;;5.95;100.00
29941;BME280;16801;53.562;10.038;2023-12-20T05:02:14;100676.09;;;5.97;100.00
29941;BME280;16801;53.562;10.038;2023-12-20T05:05:35;100673.75;;;6.05;100.00
29941;BME280;16801;53.562;10.038;2023-12-20T05:08:56;100679.44;;;6.00;100.00
29941;BME280;16801;53.562;10.038;2023-12-20T05:12:19;100661.44;;;6.02;100.00
29941;BME280;16801;53.562;10.038;2023-12-20T05:15:40;100661.94;;;6.07;100.00
29941;BME280;16801;53.562;10.038;2023-12-20T05:19:00;100665.59;;;6.06;100.00
29941;BME280;16801;53.562;10.038;2023-12-20T05:22:26;100657.13;;;6.12;100.00
29941;BME280;16801;53.562;10.038;2023-12-20T05:25:47;100662.34;;;6.14;100.00
29941;BME280;16801;53.562;10.038;2023-12-20T05:29:09;100643.72;;;6.12;100.00
29941;BME280;16801;53.562;10.038;2023-12-20T05:32:30;100648.09;;;6.13;100.00
29941;BME280;16801;53.562;10.038;2023-12-20T05:35:51;100649.81;;;6.14;100.00
29941;BME280;16801;53.562;10.038;2023-12-20T05:39:12;100652.38;;;6.16;100.00
29941;BME280;16801;53.562;10.038;2023-12-20T05:42:33;100647.28;;;6.13;100.00
29941;BME280;16801;53.562;10.038;2023-12-20T05:45:56;100645.66;;;6.10;100.00
29941;BME280;16801;53.562;10.038;2023-12-20T05:49:17;100663.13;;;6.03;100.00
29941;BME280;16801;53.562;10.038;2023-12-20T05:52:38;100651.94;;;5.98;100.00
29941;BME280;16801;53.562;10.038;2023-12-20T05:55:59;100639.38;;;5.99;100.00
29941;BME280;16801;53.562;10.038;2023-12-20T05:59:20;100633.69;;;6.03;100.00
29941;BME280;16801;53.562;10.038;2023-12-20T06:02:43;100638.09;;;6.04;100.00
29941;BME280;16801;53.562;10.038;2023-12-20T06:06:07;100634.44;;;6.05;100.00
29941;BME280;16801;53.562;10.038;2023-12-20T06:09:28;100641.50;;;6.06;100.00
29941;BME280;16801;53.562;10.038;2023-12-20T06:12:49;100623.06;;;6.14;100.00
29941;BME280;16801;53.562;10.038;2023-12-20T06:16:11;100632.91;;;6.14;100.00
29941;BME280;16801;53.562;10.038;2023-12-20T06:19:33;100612.09;;;6.06;100.00
29941;BME280;16801;53.562;10.038;2023-12-20T06:22:54;100605.28;;;6.13;100.00
29941;BME280;16801;53.562;10.038;2023-12-20T06:26:15;100602.59;;;6.13;100.00
29941;BME280;16801;53.562;10.038;2023-12-20T06:29:36;100626.47;;;6.16;100.00
29941;BME280;16801;53.562;10.038;2023-12-20T06:32:57;100604.84;;;6.19;100.00
29941;BME280;16801;53.562;10.038;2023-12-20T06:36:19;100614.09;;;6.26;100.00
29941;BME280;16801;53.562;10.038;2023-12-20T06:39:40;100597.19;;;6.26;100.00
29941;BME280;16801;53.562;10.038;2023-12-20T06:43:02;100613.38;;;6.24;100.00
29941;BME280;16801;53.562;10.038;2023-12-20T06:46:23;100604.38;;;6.25;100.00
29941;BME280;16801;53.562;10.038;2023-12-20T06:49:44;100592.69;;;6.26;100.00
29941;BME280;16801;53.562;10.038;2023-12-20T06:53:06;100586.38;;;6.27;100.00
29941;BME280;16801;53.562;10.038;2023-12-20T06:56:27;100583.81;;;6.26;100.00
29941;BME280;16801;53.562;10.038;2023-12-20T06:59:48;100577.63;;;6.25;100.00
29941;BME280;16801;53.562;10.038;2023-12-20T07:03:09;100587.47;;;6.25;100.00
29941;BME280;16801;53.562;10.038;2023-12-20T07:06:30;100573.22;;;6.24;100.00
29941;BME280;16801;53.562;10.038;2023-12-20T07:09:52;100562.31;;;6.27;100.00
29941;BME280;16801;53.562;10.038;2023-12-20T07:13:13;100563.50;;;6.23;100.00
29941;BME280;16801;53.562;10.038;2023-12-20T07:16:34;100565.94;;;6.26;100.00
29941;BME280;16801;53.562;10.038;2023-12-20T07:19:55;100563.91;;;6.30;100.00
29941;BME280;16801;53.562;10.038;2023-12-20T07:23:16;100579.09;;;6.29;100.00
29941;BME280;16801;53.562;10.038;2023-12-20T07:26:38;100559.16;;;6.33;100.00
29941;BME280;16801;53.562;10.038;2023-12-20T07:29:59;100575.09;;;6.35;100.00
29941;BME280;16801;53.562;10.038;2023-12-20T07:33:20;100581.19;;;6.37;100.00
29941;BME280;16801;53.562;10.038;2023-12-20T07:36:41;100565.72;;;6.40;100.00
29941;BME280;16801;53.562;10.038;2023-12-20T07:40:02;100564.66;;;6.43;100.00
29941;BME280;16801;53.562;10.038;2023-12-20T07:43:25;100563.78;;;6.42;100.00
29941;BME280;16801;53.562;10.038;2023-12-20T07:46:46;100543.97;;;6.45;100.00
29941;BME280;16801;53.562;10.038;2023-12-20T07:50:08;100550.53;;;6.41;100.00
29941;BME280;16801;53.562;10.038;2023-12-20T07:53:29;100552.34;;;6.40;100.00
29941;BME280;16801;53.562;10.038;2023-12-20T07:56:50;100542.13;;;6.45;100.00
29941;BME280;16801;53.562;10.038;2023-12-20T08:00:13;100556.38;;;6.46;100.00
29941;BME280;16801;53.562;10.038;2023-12-20T08:03:34;100541.66;;;6.52;100.00
29941;BME280;16801;53.562;10.038;2023-12-20T08:06:55;100541.44;;;6.55;100.00
29941;BME280;16801;53.562;10.038;2023-12-20T08:10:16;100541.91;;;6.60;100.00
29941;BME280;16801;53.562;10.038;2023-12-20T08:13:38;100536.47;;;6.61;100.00
29941;BME280;16801;53.562;10.038;2023-12-20T08:17:01;100521.97;;;6.64;100.00
29941;BME280;16801;53.562;10.038;2023-12-20T08:20:22;100519.66;;;6.70;100.00
29941;BME280;16801;53.562;10.038;2023-12-20T08:23:43;100499.81;;;6.73;100.00
29941;BME280;16801;53.562;10.038;2023-12-20T08:27:04;100485.06;;;6.78;100.00
29941;BME280;16801;53.562;10.038;2023-12-20T08:30:25;100500.19;;;6.79;100.00
29941;BME280;16801;53.562;10.038;2023-12-20T08:33:48;100487.28;;;6.84;100.00
29941;BME280;16801;53.562;10.038;2023-12-20T08:37:09;100504.94;;;6.87;100.00
29941;BME280;16801;53.562;10.038;2023-12-20T08:40:30;100484.94;;;6.91;100.00
29941;BME280;16801;53.562;10.038;2023-12-20T08:43:51;100468.66;;;6.94;100.00
29941;BME280;16801;53.562;10.038;2023-12-20T08:47:12;100467.66;;;6.95;100.00
29941;BME280;16801;53.562;10.038;2023-12-20T08:50:36;100479.97;;;6.97;100.00
29941;BME280;16801;53.562;10.038;2023-12-20T08:53:58;100465.09;;;6.82;100.00
29941;BME280;16801;53.562;10.038;2023-12-20T08:57:19;100458.28;;;6.78;100.00
29941;BME280;16801;53.562;10.038;2023-12-20T09:00:42;100470.97;;;6.76;100.00
29941;BME280;16801;53.562;10.038;2023-12-20T09:04:03;100477.31;;;6.75;100.00
29941;BME280;16801;53.562;10.038;2023-12-20T09:07:27;100484.84;;;6.70;100.00
29941;BME280;16801;53.562;10.038;2023-12-20T09:10:49;100454.16;;;6.52;100.00
29941;BME280;16801;53.562;10.038;2023-12-20T09:14:10;100445.63;;;6.47;100.00
29941;BME280;16801;53.562;10.038;2023-12-20T09:17:31;100458.91;;;6.49;100.00
29941;BME280;16801;53.562;10.038;2023-12-20T09:20:52;100477.75;;;6.47;100.00
29941;BME280;16801;53.562;10.038;2023-12-20T09:24:15;100493.56;;;6.39;100.00
29941;BME280;16801;53.562;10.038;2023-12-20T09:27:36;100504.50;;;6.25;100.00
29941;BME280;16801;53.562;10.038;2023-12-20T09:30:57;100483.66;;;6.06;100.00
29941;BME280;16801;53.562;10.038;2023-12-20T09:34:18;100498.72;;;5.96;100.00
29941;BME280;16801;53.562;10.038;2023-12-20T09:37:38;100481.66;;;5.97;100.00
29941;BME280;16801;53.562;10.038;2023-12-20T09:41:02;100496.63;;;6.00;100.00
29941;BME280;16801;53.562;10.038;2023-12-20T09:44:24;100493.75;;;6.14;100.00
29941;BME280;16801;53.562;10.038;2023-12-20T09:47:45;100510.72;;;6.25;100.00
29941;BME280;16801;53.562;10.038;2023-12-20T09:51:06;100521.59;;;6.46;100.00
29941;BME280;16801;53.562;10.038;2023-12-20T09:54:28;100505.53;;;6.46;100.00
29941;BME280;16801;53.562;10.038;2023-12-20T09:57:51;100525.22;;;6.34;100.00
29941;BME280;16801;53.562;10.038;2023-12-20T10:01:13;100498.75;;;6.18;100.00
29941;BME280;16801;53.562;10.038;2023-12-20T10:04:34;100510.81;;;6.13;100.00
29941;BME280;16801;53.562;10.038;2023-12-20T10:07:55;100496.59;;;6.23;100.00
29941;BME280;16801;53.562;10.038;2023-12-20T10:11:16;100490.56;;;6.88;100.00
29941;BME280;16801;53.562;10.038;2023-12-20T10:14:40;100477.06;;;6.67;100.00
29941;BME280;16801;53.562;10.038;2023-12-20T10:18:00;100504.28;;;6.39;100.00
29941;BME280;16801;53.562;10.038;2023-12-20T10:21:22;100527.34;;;6.18;100.00
29941;BME280;16801;53.562;10.038;2023-12-20T10:24:45;100518.56;;;6.05;100.00
29941;BME280;16801;53.562;10.038;2023-12-20T10:28:11;100529.81;;;5.97;100.00
29941;BME280;16801;53.562;10.038;2023-12-20T10:31:34;100510.31;;;5.84;100.00
29941;BME280;16801;53.562;10.038;2023-12-20T10:34:55;100516.97;;;6.13;100.00
29941;BME280;16801;53.562;10.038;2023-12-20T10:38:15;100483.38;;;5.98;100.00
29941;BME280;16801;53.562;10.038;2023-12-20T10:41:37;100492.13;;;6.46;100.00
29941;BME280;16801;53.562;10.038;2023-12-20T10:45:00;100486.59;;;6.14;100.00
29941;BME280;16801;53.562;10.038;2023-12-20T10:48:23;100483.69;;;6.17;100.00
29941;BME280;16801;53.562;10.038;2023-12-20T10:51:48;100471.81;;;5.98;100.00
29941;BME280;16801;53.562;10.038;2023-12-20T10:55:11;100465.34;;;6.68;100.00
29941;BME280;16801;53.562;10.038;2023-12-20T10:58:33;100470.25;;;6.63;100.00
29941;BME280;16801;53.562;10.038;2023-12-20T11:01:57;100479.50;;;6.13;100.00
29941;BME280;16801;53.562;10.038;2023-12-20T11:05:31;100462.34;;;5.94;100.00
29941;BME280;16801;53.562;10.038;2023-12-20T11:09:00;100483.47;;;5.86;100.00
29941;BME280;16801;53.562;10.038;2023-12-20T11:12:37;100458.97;;;6.03;100.00
29941;BME280;16801;53.562;10.038;2023-12-20T11:16:00;100478.56;;;6.14;100.00
29941;BME280;16801;53.562;10.038;2023-12-20T11:19:21;100472.19;;;6.61;100.00
29941;BME280;16801;53.562;10.038;2023-12-20T11:22:53;100486.91;;;6.67;100.00
29941;BME280;16801;53.562;10.038;2023-12-20T11:26:16;100485.31;;;6.86;100.00
29941;BME280;16801;53.562;10.038;2023-12-20T11:29:36;100465.59;;;6.76;100.00
29941;BME280;16801;53.562;10.038;2023-12-20T11:32:59;100480.84;;;6.76;100.00
29941;BME280;16801;53.562;10.038;2023-12-20T11:36:20;100520.41;;;6.61;100.00
29941;BME280;16801;53.562;10.038;2023-12-20T11:39:54;100506.97;;;6.39;100.00
29941;BME280;16801;53.562;10.038;2023-12-20T11:43:29;100498.63;;;6.20;100.00
29941;BME280;16801;53.562;10.038;2023-12-20T11:46:50;100483.19;;;6.12;100.00
29941;BME280;16801;53.562;10.038;2023-12-20T11:50:11;100484.53;;;6.18;100.00
29941;BME280;16801;53.562;10.038;2023-12-20T11:53:32;100477.75;;;6.25;100.00
29941;BME280;16801;53.562;10.038;2023-12-20T11:56:55;100491.03;;;7.04;100.00
29941;BME280;16801;53.562;10.038;2023-12-20T12:00:16;100481.81;;;6.86;100.00
29941;BME280;16801;53.562;10.038;2023-12-20T12:03:38;100466.53;;;6.20;100.00
29941;BME280;16801;53.562;10.038;2023-12-20T12:06:59;100488.56;;;6.23;100.00
29941;BME280;16801;53.562;10.038;2023-12-20T12:10:19;100489.78;;;6.19;100.00
29941;BME280;16801;53.562;10.038;2023-12-20T12:13:42;100489.91;;;6.29;100.00
29941;BME280;16801;53.562;10.038;2023-12-20T12:17:03;100466.72;;;6.63;100.00
29941;BME280;16801;53.562;10.038;2023-12-20T12:20:24;100462.47;;;8.61;100.00
29941;BME280;16801;53.562;10.038;2023-12-20T12:23:45;100445.78;;;10.14;100.00
29941;BME280;16801;53.562;10.038;2023-12-20T12:27:06;100447.13;;;10.47;100.00
29941;BME280;16801;53.562;10.038;2023-12-20T12:30:28;100442.66;;;9.80;100.00
29941;BME280;16801;53.562;10.038;2023-12-20T12:33:50;100434.00;;;10.05;100.00
29941;BME280;16801;53.562;10.038;2023-12-20T12:37:11;100447.56;;;9.37;100.00
29941;BME280;16801;53.562;10.038;2023-12-20T12:40:34;100445.75;;;9.56;100.00
29941;BME280;16801;53.562;10.038;2023-12-20T12:43:55;100447.19;;;9.60;100.00
29941;BME280;16801;53.562;10.038;2023-12-20T12:47:17;100449.31;;;9.66;100.00
29941;BME280;16801;53.562;10.038;2023-12-20T12:50:38;100440.72;;;9.04;100.00
29941;BME280;16801;53.562;10.038;2023-12-20T12:53:59;100446.38;;;8.41;100.00
29941;BME280;16801;53.562;10.038;2023-12-20T12:57:20;100446.25;;;8.72;100.00
29941;BME280;16801;53.562;10.038;2023-12-20T13:00:41;100454.59;;;9.09;100.00
29941;BME280;16801;53.562;10.038;2023-12-20T13:04:04;100451.72;;;8.61;100.00
29941;BME280;16801;53.562;10.038;2023-12-20T13:07:29;100458.16;;;8.49;100.00
29941;BME280;16801;53.562;10.038;2023-12-20T13:10:50;100465.66;;;8.25;100.00
29941;BME280;16801;53.562;10.038;2023-12-20T13:14:12;100468.03;;;8.07;100.00
29941;BME280;16801;53.562;10.038;2023-12-20T13:17:35;100460.16;;;8.16;100.00
29941;BME280;16801;53.562;10.038;2023-12-20T13:20:58;100462.09;;;7.72;100.00
29941;BME280;16801;53.562;10.038;2023-12-20T13:24:19;100462.25;;;7.71;100.00
29941;BME280;16801;53.562;10.038;2023-12-20T13:27:41;100462.63;;;7.66;100.00
29941;BME280;16801;53.562;10.038;2023-12-20T13:31:03;100459.50;;;7.50;100.00
29941;BME280;16801;53.562;10.038;2023-12-20T13:34:23;100464.06;;;7.70;100.00
29941;BME280;16801;53.562;10.038;2023-12-20T13:37:46;100471.28;;;7.27;100.00
29941;BME280;16801;53.562;10.038;2023-12-20T13:41:07;100461.91;;;7.21;100.00
29941;BME280;16801;53.562;10.038;2023-12-20T13:44:28;100469.50;;;6.94;100.00
29941;BME280;16801;53.562;10.038;2023-12-20T13:47:50;100470.25;;;6.96;100.00
29941;BME280;16801;53.562;10.038;2023-12-20T13:51:11;100473.00;;;6.95;100.00
29941;BME280;16801;53.562;10.038;2023-12-20T13:54:33;100474.97;;;6.71;100.00
29941;BME280;16801;53.562;10.038;2023-12-20T13:57:54;100495.91;;;6.66;100.00
29941;BME280;16801;53.562;10.038;2023-12-20T14:01:15;100484.25;;;6.67;100.00
29941;BME280;16801;53.562;10.038;2023-12-20T14:04:36;100493.00;;;6.91;100.00
29941;BME280;16801;53.562;10.038;2023-12-20T14:07:58;100490.69;;;6.97;100.00
29941;BME280;16801;53.562;10.038;2023-12-20T14:11:22;100514.56;;;6.89;100.00
29941;BME280;16801;53.562;10.038;2023-12-20T14:14:43;100498.84;;;6.85;100.00
29941;BME280;16801;53.562;10.038;2023-12-20T14:18:05;100502.38;;;6.85;100.00
29941;BME280;16801;53.562;10.038;2023-12-20T14:21:27;100496.44;;;6.82;100.00
29941;BME280;16801;53.562;10.038;2023-12-20T14:24:48;100507.00;;;6.83;100.00
29941;BME280;16801;53.562;10.038;2023-12-20T14:28:10;100502.16;;;6.88;100.00
29941;BME280;16801;53.562;10.038;2023-12-20T14:31:33;100500.31;;;6.89;100.00
29941;BME280;16801;53.562;10.038;2023-12-20T14:34:55;100506.66;;;6.88;100.00
29941;BME280;16801;53.562;10.038;2023-12-20T14:38:16;100500.44;;;6.87;100.00
29941;BME280;16801;53.562;10.038;2023-12-20T14:41:37;100502.25;;;6.87;100.00
29941;BME280;16801;53.562;10.038;2023-12-20T14:44:59;100504.47;;;6.82;100.00
29941;BME280;16801;53.562;10.038;2023-12-20T14:48:20;100491.28;;;6.79;100.00
29941;BME280;16801;53.562;10.038;2023-12-20T14:51:43;100510.19;;;6.77;100.00
29941;BME280;16801;53.562;10.038;2023-12-20T14:55:04;100504.06;;;6.64;100.00
29941;BME280;16801;53.562;10.038;2023-12-20T14:58:25;100511.16;;;6.65;100.00
29941;BME280;16801;53.562;10.038;2023-12-20T15:01:47;100521.72;;;6.67;100.00
29941;BME280;16801;53.562;10.038;2023-12-20T15:05:09;100519.03;;;6.56;100.00
29941;BME280;16801;53.562;10.038;2023-12-20T15:08:30;100524.75;;;6.51;100.00
29941;BME280;16801;53.562;10.038;2023-12-20T15:11:51;100525.13;;;6.47;100.00
29941;BME280;16801;53.562;10.038;2023-12-20T15:15:12;100525.38;;;6.55;100.00
29941;BME280;16801;53.562;10.038;2023-12-20T15:18:34;100521.22;;;6.51;100.00
29941;BME280;16801;53.562;10.038;2023-12-20T15:21:55;100514.66;;;6.55;100.00
29941;BME280;16801;53.562;10.038;2023-12-20T15:25:18;100510.88;;;6.46;100.00
29941;BME280;16801;53.562;10.038;2023-12-20T15:28:41;100506.09;;;6.38;100.00
29941;BME280;16801;53.562;10.038;2023-12-20T15:32:02;100507.22;;;6.36;100.00
29941;BME280;16801;53.562;10.038;2023-12-20T15:35:24;100508.50;;;6.30;100.00
29941;BME280;16801;53.562;10.038;2023-12-20T15:38:45;100505.22;;;6.27;100.00
29941;BME280;16801;53.562;10.038;2023-12-20T15:42:06;100502.78;;;6.24;100.00
29941;BME280;16801;53.562;10.038;2023-12-20T15:45:27;100500.09;;;6.24;100.00
29941;BME280;16801;53.562;10.038;2023-12-20T15:48:48;100502.16;;;6.20;100.00
29941;BME280;16801;53.562;10.038;2023-12-20T15:52:12;100502.16;;;6.20;100.00
29941;BME280;16801;53.562;10.038;2023-12-20T15:55:33;100504.97;;;6.19;100.00
29941;BME280;16801;53.562;10.038;2023-12-20T15:58:54;100503.38;;;6.16;100.00
29941;BME280;16801;53.562;10.038;2023-12-20T16:02:17;100506.53;;;6.10;100.00
29941;BME280;16801;53.562;10.038;2023-12-20T16:05:37;100512.63;;;6.12;100.00
29941;BME280;16801;53.562;10.038;2023-12-20T16:09:00;100503.50;;;6.15;100.00
29941;BME280;16801;53.562;10.038;2023-12-20T16:12:21;100505.44;;;6.24;100.00
29941;BME280;16801;53.562;10.038;2023-12-20T16:15:42;100500.69;;;6.16;100.00
29941;BME280;16801;53.562;10.038;2023-12-20T16:19:03;100493.88;;;6.12;100.00
29941;BME280;16801;53.562;10.038;2023-12-20T16:22:24;100496.69;;;6.11;100.00
29941;BME280;16801;53.562;10.038;2023-12-20T16:25:47;100500.91;;;6.13;100.00
29941;BME280;16801;53.562;10.038;2023-12-20T16:29:08;100502.88;;;6.11;100.00
29941;BME280;16801;53.562;10.038;2023-12-20T16:32:29;100501.19;;;6.10;100.00
29941;BME280;16801;53.562;10.038;2023-12-20T16:35:50;100495.69;;;6.12;100.00
29941;BME280;16801;53.562;10.038;2023-12-20T16:39:11;100497.63;;;6.10;100.00
29941;BME280;16801;53.562;10.038;2023-12-20T16:42:34;100496.28;;;6.04;100.00
29941;BME280;16801;53.562;10.038;2023-12-20T16:45:55;100520.91;;;6.20;100.00
29941;BME280;16801;53.562;10.038;2023-12-20T16:49:16;100533.06;;;6.24;100.00
29941;BME280;16801;53.562;10.038;2023-12-20T16:52:37;100561.31;;;6.28;100.00
29941;BME280;16801;53.562;10.038;2023-12-20T16:55:58;100546.47;;;6.24;100.00
29941;BME280;16801;53.562;10.038;2023-12-20T16:59:20;100532.59;;;6.19;100.00
29941;BME280;16801;53.562;10.038;2023-12-20T17:02:41;100531.75;;;5.95;100.00
29941;BME280;16801;53.562;10.038;2023-12-20T17:06:03;100542.75;;;5.80;100.00
29941;BME280;16801;53.562;10.038;2023-12-20T17:09:23;100531.41;;;5.76;100.00
29941;BME280;16801;53.562;10.038;2023-12-20T17:12:45;100543.66;;;5.55;100.00
29941;BME280;16801;53.562;10.038;2023-12-20T17:16:08;100544.25;;;5.47;100.00
29941;BME280;16801;53.562;10.038;2023-12-20T17:19:29;100524.72;;;5.34;100.00